createdAt,value
2018-08-20T00:02:27.107Z,10.50
2018-08-20T00:04:59.811Z,9.53
2018-08-20T00:07:29.421Z,11.27
2018-08-20T00:09:59.059Z,11.27
2018-08-20T00:12:28.644Z,12.17
2018-08-20T00:14:58.171Z,12.27
2018-08-20T00:17:27.764Z,10.83
2018-08-20T00:19:57.267Z,12.63
2018-08-20T00:22:26.794Z,10.20
2018-08-20T00:25:07.478Z,12.40
2018-08-20T00:27:36.993Z,12.67
2018-08-20T00:30:08.909Z,10.30
2018-08-20T00:32:38.402Z,10.73
2018-08-20T00:35:08.081Z,14.10
2018-08-20T00:37:37.589Z,11.00
2018-08-20T00:40:07.158Z,15.47
2018-08-20T00:42:36.619Z,10.17
2018-08-20T00:45:06.382Z,12.90
2018-08-20T00:47:35.929Z,9.73
2018-08-20T00:50:06.496Z,12.17
2018-08-20T00:52:36.121Z,12.73
2018-08-20T00:55:07.416Z,13.53
2018-08-20T00:57:36.926Z,16.33
2018-08-20T01:00:07.158Z,13.77
2018-08-20T01:02:36.634Z,13.30
2018-08-20T01:05:06.254Z,12.00
2018-08-20T01:07:35.742Z,10.73
2018-08-20T01:10:07.091Z,10.33
2018-08-20T01:12:36.664Z,12.07
2018-08-20T01:15:06.321Z,12.70
2018-08-20T01:17:35.920Z,11.53
2018-08-20T01:20:05.611Z,13.83
2018-08-20T01:22:35.163Z,12.90
2018-08-20T01:25:04.930Z,12.57
2018-08-20T01:27:34.428Z,11.23
2018-08-20T01:30:04.440Z,12.30
2018-08-20T01:32:34.005Z,12.90
2018-08-20T01:35:18.045Z,11.30
2018-08-20T01:37:47.706Z,12.37
2018-08-20T01:40:17.273Z,16.27
2018-08-20T01:42:46.807Z,11.60
2018-08-20T01:45:16.335Z,11.17
2018-08-20T01:47:45.811Z,11.90
2018-08-20T01:50:15.357Z,13.07
2018-08-20T01:52:44.886Z,12.67
2018-08-20T01:55:14.393Z,12.67
2018-08-20T01:57:43.867Z,15.63
2018-08-20T02:00:13.400Z,10.93
2018-08-20T02:02:43.047Z,13.67
2018-08-20T02:05:12.579Z,11.87
2018-08-20T02:07:42.285Z,12.27
2018-08-20T02:10:11.887Z,14.20
2018-08-20T02:12:41.804Z,14.77
2018-08-20T02:15:11.403Z,13.53
2018-08-20T02:17:40.981Z,12.77
2018-08-20T02:20:11.688Z,12.47
2018-08-20T02:22:41.186Z,13.67
2018-08-20T02:25:10.865Z,13.97
2018-08-20T02:27:40.412Z,15.67
2018-08-20T02:30:09.954Z,11.00
2018-08-20T02:32:39.463Z,12.67
2018-08-20T02:35:09.792Z,12.30
2018-08-20T02:37:44.359Z,12.40
2018-08-20T02:40:14.212Z,10.43
2018-08-20T02:42:43.801Z,13.20
2018-08-20T02:45:15.830Z,13.30
2018-08-20T02:47:45.695Z,11.53
2018-08-20T02:50:15.715Z,12.47
2018-08-20T02:52:45.953Z,10.80
2018-08-20T02:55:15.567Z,10.67
2018-08-20T02:57:45.065Z,11.40
2018-08-20T03:00:15.065Z,12.60
2018-08-20T03:02:44.588Z,10.53
2018-08-20T03:05:14.243Z,10.90
2018-08-20T03:07:43.812Z,10.03
2018-08-20T03:10:13.791Z,11.30
2018-08-20T03:12:43.357Z,8.30
2018-08-20T03:15:12.863Z,10.80
2018-08-20T03:17:42.402Z,9.90
2018-08-20T03:20:11.987Z,9.23
2018-08-20T03:22:41.610Z,11.33
2018-08-20T03:25:11.164Z,12.23
2018-08-20T03:27:40.755Z,10.67
2018-08-20T03:30:11.035Z,9.53
2018-08-20T03:32:41.067Z,10.07
2018-08-20T03:35:11.843Z,9.23
2018-08-20T03:37:42.406Z,10.43
2018-08-20T03:40:12.846Z,9.53
2018-08-20T03:42:42.883Z,11.50
2018-08-20T03:45:12.370Z,9.77
2018-08-20T03:47:41.974Z,9.97
2018-08-20T03:50:13.660Z,8.80
2018-08-20T03:52:43.298Z,12.10
2018-08-20T03:55:12.842Z,8.93
2018-08-20T03:57:42.367Z,8.07
2018-08-20T04:00:12.417Z,9.50
2018-08-20T04:02:41.942Z,11.77
2018-08-20T04:05:11.566Z,11.23
2018-08-20T04:07:41.189Z,7.63
2018-08-20T04:10:10.730Z,10.23
2018-08-20T04:12:40.193Z,7.67
2018-08-20T04:15:09.794Z,10.07
2018-08-20T04:17:39.415Z,7.53
2018-08-20T04:20:08.994Z,8.60
2018-08-20T04:22:38.593Z,12.03
2018-08-20T04:25:08.136Z,7.57
2018-08-20T04:27:37.690Z,7.80
2018-08-20T04:30:07.265Z,10.80
2018-08-20T04:32:36.776Z,8.47
2018-08-20T04:35:06.439Z,6.60
2018-08-20T04:37:36.170Z,9.37
2018-08-20T04:40:06.682Z,10.03
2018-08-20T04:42:36.213Z,9.53
2018-08-20T04:45:06.385Z,7.50
2018-08-20T04:47:35.924Z,11.00
2018-08-20T04:50:07.636Z,7.13
2018-08-20T04:52:37.392Z,6.70
2018-08-20T04:55:06.979Z,7.67
2018-08-20T04:57:36.518Z,8.20
2018-08-20T05:00:08.676Z,6.83
2018-08-20T05:02:38.269Z,8.60
2018-08-20T05:05:07.865Z,7.53
2018-08-20T05:07:37.420Z,7.43
2018-08-20T05:10:07.226Z,7.23
2018-08-20T05:12:36.695Z,7.87
2018-08-20T05:15:06.273Z,8.60
2018-08-20T05:17:35.859Z,8.33
2018-08-20T05:20:06.045Z,9.23
2018-08-20T05:22:35.569Z,9.10
2018-08-20T05:25:05.697Z,8.60
2018-08-20T05:27:35.200Z,7.80
2018-08-20T05:30:05.368Z,8.80
2018-08-20T05:32:34.903Z,9.53
2018-08-20T05:35:04.824Z,7.90
2018-08-20T05:37:34.284Z,9.93
2018-08-20T05:40:03.997Z,19.97
2018-08-20T05:42:33.521Z,8.57
2018-08-20T05:45:03.116Z,11.10
2018-08-20T05:47:32.636Z,10.57
2018-08-20T05:50:02.166Z,11.40
2018-08-20T05:52:31.724Z,12.57
2018-08-20T05:55:01.251Z,11.43
2018-08-20T05:57:30.959Z,9.40
2018-08-20T06:00:00.638Z,12.10
2018-08-20T06:02:30.150Z,9.93
2018-08-20T06:04:59.727Z,11.67
2018-08-20T06:07:29.271Z,12.83
2018-08-20T06:09:58.804Z,16.50
2018-08-20T06:12:28.366Z,10.13
2018-08-20T06:14:57.880Z,7.17
2018-08-20T06:17:27.449Z,9.43
2018-08-20T06:19:57.009Z,8.23
2018-08-20T06:22:26.552Z,8.97
2018-08-20T06:24:56.094Z,7.27
2018-08-20T06:27:25.702Z,10.50
2018-08-20T06:29:55.246Z,10.83
2018-08-20T06:32:24.766Z,10.67
2018-08-20T06:34:54.319Z,11.33
2018-08-20T06:37:23.821Z,9.67
2018-08-20T06:39:53.362Z,9.87
2018-08-20T06:42:22.944Z,11.20
2018-08-20T06:44:52.498Z,10.30
2018-08-20T06:47:22.049Z,13.47
2018-08-20T06:49:51.609Z,17.07
2018-08-20T06:52:21.129Z,14.27
2018-08-20T06:54:50.692Z,10.83
2018-08-20T06:57:20.197Z,13.07
2018-08-20T06:59:49.849Z,11.50
2018-08-20T07:02:19.608Z,12.50
2018-08-20T07:04:49.189Z,16.40
2018-08-20T07:07:18.748Z,14.27
2018-08-20T07:09:48.407Z,15.10
2018-08-20T07:12:17.971Z,17.60
2018-08-20T07:14:47.512Z,15.53
2018-08-20T07:17:17.115Z,16.87
2018-08-20T07:19:46.731Z,17.83
2018-08-20T07:22:16.323Z,18.93
2018-08-20T07:24:45.876Z,14.93
2018-08-20T07:27:15.420Z,14.40
2018-08-20T07:29:45.986Z,18.10
2018-08-20T07:32:16.403Z,16.67
2018-08-20T07:34:46.865Z,18.27
2018-08-20T07:37:17.581Z,17.60
2018-08-20T07:39:48.414Z,19.97
2018-08-20T07:42:18.003Z,20.53
2018-08-20T07:44:47.587Z,19.73
2018-08-20T07:47:17.935Z,29.73
2018-08-20T07:49:49.605Z,19.83
2018-08-20T07:52:19.135Z,18.20
2018-08-20T07:54:48.699Z,16.50
2018-08-20T07:57:18.245Z,18.87
2018-08-20T07:59:48.014Z,16.13
2018-08-20T08:02:17.819Z,19.47
2018-08-20T08:04:47.479Z,22.83
2018-08-20T08:07:17.089Z,25.10
2018-08-20T08:09:46.675Z,21.70
2018-08-20T08:12:16.290Z,44.67
2018-08-20T08:14:45.874Z,19.77
2018-08-20T08:17:15.487Z,18.50
2018-08-20T08:19:45.150Z,20.60
2018-08-20T08:22:14.653Z,37.47
2018-08-20T08:24:44.290Z,22.47
2018-08-20T08:27:13.866Z,18.50
2018-08-20T08:29:43.496Z,29.87
2018-08-20T08:32:13.124Z,31.60
2018-08-20T08:34:42.810Z,23.97
2018-08-20T08:37:12.666Z,24.03
2018-08-20T08:39:43.011Z,24.00
2018-08-20T08:42:12.887Z,19.97
2018-08-20T08:44:45.941Z,14.30
2018-08-20T08:47:20.451Z,14.53
2018-08-20T08:49:50.673Z,25.70
2018-08-20T08:52:20.373Z,27.40
2018-08-20T08:54:51.297Z,79.47
2018-08-20T08:57:21.125Z,27.37
2018-08-20T08:59:51.020Z,24.50
2018-08-20T09:02:24.537Z,22.80
2018-08-20T09:04:55.118Z,19.20
2018-08-20T09:07:25.308Z,16.97
2018-08-20T09:09:55.197Z,21.93
2018-08-20T09:12:26.632Z,17.37
2018-08-20T09:15:02.237Z,15.50
2018-08-20T09:17:47.450Z,20.30
2018-08-20T09:20:32.451Z,44.33
2018-08-20T09:23:03.525Z,17.33
2018-08-20T09:25:33.211Z,17.83
2018-08-20T09:28:02.911Z,21.67
2018-08-20T09:30:37.095Z,16.33
2018-08-20T09:33:08.886Z,15.03
2018-08-20T09:35:38.531Z,22.63
2018-08-20T09:38:08.238Z,21.23
2018-08-20T09:40:37.797Z,18.17
2018-08-20T09:43:07.433Z,16.97
2018-08-20T09:45:37.010Z,15.47
2018-08-20T09:48:06.598Z,14.33
2018-08-20T09:50:36.181Z,21.80
2018-08-20T09:53:05.885Z,41.60
2018-08-20T09:55:35.489Z,21.20
2018-08-20T09:58:05.102Z,18.60
2018-08-20T10:00:39.767Z,25.73
2018-08-20T10:03:10.215Z,15.57
2018-08-20T10:05:40.550Z,16.10
2018-08-20T10:08:12.828Z,14.83
2018-08-20T10:10:42.447Z,15.63
2018-08-20T10:13:12.077Z,66.23
2018-08-20T10:15:41.652Z,56.33
2018-08-20T10:18:13.590Z,15.27
2018-08-20T10:20:51.549Z,15.93
2018-08-20T10:23:21.508Z,10.07
2018-08-20T10:25:55.789Z,10.60
2018-08-20T10:28:31.953Z,13.93
2018-08-20T10:31:03.827Z,21.87
2018-08-20T10:33:33.394Z,18.27
2018-08-20T10:36:04.250Z,13.00
2018-08-20T10:38:33.958Z,10.63
2018-08-20T10:41:03.552Z,11.17
2018-08-20T10:43:33.215Z,11.03
2018-08-20T10:46:07.954Z,12.13
2018-08-20T10:48:37.480Z,9.70
2018-08-20T10:51:07.157Z,9.03
2018-08-20T10:53:36.662Z,8.73
2018-08-20T10:56:06.408Z,10.53
2018-08-20T10:58:35.980Z,11.13
2018-08-20T11:01:05.730Z,16.93
2018-08-20T11:03:35.262Z,10.10
2018-08-20T11:06:04.881Z,11.17
2018-08-20T11:08:34.888Z,14.47
2018-08-20T11:11:05.035Z,7.73
2018-08-20T11:13:35.010Z,55.63
2018-08-20T11:16:05.388Z,12.60
2018-08-20T11:18:35.011Z,10.37
2018-08-20T11:21:04.946Z,10.83
2018-08-20T11:23:35.682Z,19.80
2018-08-20T11:26:05.390Z,8.77
2018-08-20T11:28:35.336Z,11.67
2018-08-20T11:31:04.964Z,15.10
2018-08-20T11:33:36.154Z,16.30
2018-08-20T11:36:06.493Z,11.33
2018-08-20T11:38:40.417Z,12.00
2018-08-20T11:41:10.968Z,6.33
2018-08-20T11:43:40.960Z,6.07
2018-08-20T11:46:10.606Z,4.83
2018-08-20T11:48:42.455Z,38.53
2018-08-20T11:51:12.000Z,10.13
2018-08-20T11:53:41.588Z,7.73
2018-08-20T11:56:11.150Z,9.63
2018-08-20T11:58:40.698Z,6.57
2018-08-20T12:01:10.249Z,7.43
2018-08-20T12:03:39.762Z,10.30
2018-08-20T12:06:09.332Z,7.77
2018-08-20T12:08:38.841Z,6.17
2018-08-20T12:11:08.435Z,17.17
2018-08-20T12:13:38.014Z,6.70
2018-08-20T12:16:07.767Z,4.20
2018-08-20T12:18:37.314Z,5.97
2018-08-20T12:21:07.201Z,5.27
2018-08-20T12:23:36.758Z,7.13
2018-08-20T12:26:06.278Z,6.80
2018-08-20T12:28:35.827Z,6.13
2018-08-20T12:31:05.440Z,4.83
2018-08-20T12:33:35.030Z,10.33
2018-08-20T12:36:04.748Z,10.07
2018-08-20T12:38:34.404Z,9.43
2018-08-20T12:41:03.979Z,8.00
2018-08-20T12:43:33.474Z,9.27
2018-08-20T12:46:03.270Z,6.53
2018-08-20T12:48:32.848Z,6.97
2018-08-20T12:51:02.361Z,11.13
2018-08-20T12:53:32.006Z,7.93
2018-08-20T12:56:01.560Z,7.83
2018-08-20T12:58:31.163Z,7.07
2018-08-20T13:01:00.732Z,5.40
2018-08-20T13:03:30.631Z,6.80
2018-08-20T13:06:00.217Z,7.13
2018-08-20T13:08:29.773Z,5.73
2018-08-20T13:10:59.346Z,7.60
2018-08-20T13:13:28.863Z,5.73
2018-08-20T13:15:58.667Z,21.03
2018-08-20T13:18:28.184Z,5.53
2018-08-20T13:20:57.724Z,7.00
2018-08-20T13:23:27.311Z,6.50
2018-08-20T13:25:56.914Z,6.20
2018-08-20T13:28:26.472Z,6.67
2018-08-20T13:30:56.821Z,5.63
2018-08-20T13:33:27.023Z,6.33
2018-08-20T13:35:56.601Z,6.87
2018-08-20T13:38:26.996Z,6.77
2018-08-20T13:40:57.402Z,5.73
2018-08-20T13:43:26.999Z,4.80
2018-08-20T13:45:56.586Z,6.67
2018-08-20T13:48:29.983Z,5.47
2018-08-20T13:50:59.523Z,4.50
2018-08-20T13:53:29.093Z,4.70
2018-08-20T13:55:58.753Z,5.63
2018-08-20T13:58:28.324Z,5.47
2018-08-20T14:00:58.494Z,4.97
2018-08-20T14:03:28.041Z,4.97
2018-08-20T14:05:57.588Z,3.20
2018-08-20T14:08:27.158Z,4.70
2018-08-20T14:11:01.426Z,3.43
2018-08-20T14:13:34.105Z,4.53
2018-08-20T14:16:09.150Z,21.60
2018-08-20T14:18:39.313Z,14.73
2018-08-20T14:21:14.341Z,6.10
2018-08-20T14:23:48.787Z,4.80
2018-08-20T14:26:19.769Z,7.83
2018-08-20T14:28:49.388Z,6.93
2018-08-20T14:31:19.051Z,12.73
2018-08-20T14:33:48.972Z,12.73
2018-08-20T14:36:19.219Z,4.73
2018-08-20T14:38:48.814Z,3.57
2018-08-20T14:41:19.737Z,5.20
2018-08-20T14:43:50.396Z,3.50
2018-08-20T14:46:21.431Z,7.37
2018-08-20T14:48:52.804Z,4.07
2018-08-20T14:51:23.644Z,3.60
2018-08-20T14:53:53.912Z,2.87
2018-08-20T14:56:24.096Z,4.87
2018-08-20T14:58:55.558Z,4.90
2018-08-20T15:01:26.669Z,7.03
2018-08-20T15:03:56.291Z,6.23
2018-08-20T15:06:30.160Z,5.20
2018-08-20T15:08:59.846Z,4.50
2018-08-20T15:11:31.252Z,3.93
2018-08-20T15:14:01.686Z,4.23
2018-08-20T15:16:31.221Z,7.00
2018-08-20T15:19:00.775Z,6.80
2018-08-20T15:21:30.332Z,5.40
2018-08-20T15:24:00.947Z,6.50
2018-08-20T15:26:30.584Z,4.40
2018-08-20T15:29:00.105Z,2.93
2018-08-20T15:31:29.641Z,3.53
2018-08-20T15:33:59.203Z,2.93
2018-08-20T15:36:28.770Z,2.37
2018-08-20T15:38:58.535Z,3.03
2018-08-20T15:41:28.115Z,4.03
2018-08-20T15:43:57.679Z,2.13
2018-08-20T15:46:27.902Z,3.37
2018-08-20T15:49:01.072Z,3.43
2018-08-20T15:51:36.459Z,3.67
2018-08-20T15:54:11.003Z,5.07
2018-08-20T15:56:41.032Z,2.07
2018-08-20T15:59:14.571Z,2.37
2018-08-20T16:01:48.019Z,2.33
2018-08-20T16:04:21.308Z,2.57
2018-08-20T16:06:53.462Z,2.93
2018-08-20T16:09:26.609Z,2.53
2018-08-20T16:12:00.337Z,2.07
2018-08-20T16:14:37.424Z,2.40
2018-08-20T16:17:10.765Z,2.87
2018-08-20T16:19:43.445Z,3.03
2018-08-20T16:22:13.024Z,4.07
2018-08-20T16:24:44.045Z,2.07
2018-08-20T16:27:13.640Z,2.13
2018-08-20T16:29:43.168Z,3.17
2018-08-20T16:32:12.712Z,1.77
2018-08-20T16:34:42.249Z,4.33
2018-08-20T16:37:11.868Z,3.17
2018-08-20T16:39:41.551Z,3.23
2018-08-20T16:42:11.210Z,1.93
2018-08-20T16:44:41.004Z,2.50
2018-08-20T16:47:10.701Z,2.07
2018-08-20T16:49:40.302Z,1.67
2018-08-20T16:52:10.048Z,1.77
2018-08-20T16:54:39.654Z,4.37
2018-08-20T16:57:09.341Z,2.40
2018-08-20T16:59:38.896Z,2.60
2018-08-20T17:02:15.015Z,3.33
2018-08-20T17:04:44.596Z,3.10
2018-08-20T17:07:14.210Z,2.83
2018-08-20T17:09:43.861Z,3.50
2018-08-20T17:12:13.369Z,2.97
2018-08-20T17:14:43.033Z,2.73
2018-08-20T17:17:12.563Z,1.90
2018-08-20T17:19:45.166Z,3.93
2018-08-20T17:22:15.175Z,3.67
2018-08-20T17:24:44.924Z,3.60
2018-08-20T17:27:14.722Z,3.90
2018-08-20T17:29:44.630Z,3.73
2018-08-20T17:32:14.322Z,3.53
2018-08-20T17:34:44.017Z,1.93
2018-08-20T17:37:13.661Z,1.93
2018-08-20T17:39:57.752Z,3.03
2018-08-20T17:42:29.696Z,1.93
2018-08-20T17:44:59.934Z,2.30
2018-08-20T17:47:30.052Z,2.73
2018-08-20T17:50:00.574Z,2.73
2018-08-20T17:52:34.147Z,2.80
2018-08-20T17:55:05.004Z,3.20
2018-08-20T17:57:34.794Z,1.77
2018-08-20T18:00:20.772Z,2.87
2018-08-20T18:02:50.432Z,1.67
2018-08-20T18:05:21.091Z,2.67
2018-08-20T18:07:50.680Z,2.37
2018-08-20T18:10:20.420Z,2.00
2018-08-20T18:12:50.235Z,3.27
2018-08-20T18:15:20.205Z,3.00
2018-08-20T18:17:49.872Z,2.10
2018-08-20T18:20:19.572Z,2.97
2018-08-20T18:22:49.238Z,1.93
2018-08-20T18:25:18.866Z,2.60
2018-08-20T18:27:48.421Z,2.23
2018-08-20T18:30:18.282Z,3.43
2018-08-20T18:32:47.951Z,1.60
2018-08-20T18:35:22.751Z,2.30
2018-08-20T18:37:52.986Z,1.97
2018-08-20T18:40:22.607Z,1.50
2018-08-20T18:42:52.356Z,2.67
2018-08-20T18:45:22.197Z,1.70
2018-08-20T18:47:51.860Z,1.70
2018-08-20T18:50:21.603Z,3.50
2018-08-20T18:52:51.347Z,2.20
2018-08-20T18:55:20.906Z,2.67
2018-08-20T18:57:50.569Z,1.90
2018-08-20T19:00:20.237Z,1.57
2018-08-20T19:02:53.349Z,1.37
2018-08-20T19:05:23.066Z,1.40
2018-08-20T19:07:52.684Z,1.70
2018-08-20T19:10:26.604Z,1.60
2018-08-20T19:12:56.501Z,2.77
2018-08-20T19:15:43.423Z,2.87
2018-08-20T19:18:16.581Z,3.30
2018-08-20T19:20:46.581Z,2.77
2018-08-20T19:23:16.332Z,3.30
2018-08-20T19:25:46.365Z,2.67
2018-08-20T19:28:23.379Z,1.80
2018-08-20T19:30:54.647Z,3.83
2018-08-20T19:33:27.482Z,1.50
2018-08-20T19:35:57.593Z,1.90
2018-08-20T19:38:27.584Z,1.50
2018-08-20T19:41:04.623Z,1.77
2018-08-20T19:43:39.896Z,1.90
2018-08-20T19:46:10.113Z,3.27
2018-08-20T19:48:40.064Z,2.97
2018-08-20T19:51:11.205Z,2.50
2018-08-20T19:53:41.099Z,1.87
2018-08-20T19:56:13.327Z,1.57
2018-08-20T19:58:44.559Z,1.57
2018-08-20T20:01:16.302Z,1.23
2018-08-20T20:03:48.111Z,2.17
2018-08-20T20:06:18.617Z,1.90
2018-08-20T20:08:49.246Z,1.67
2018-08-20T20:11:24.643Z,1.77
2018-08-20T20:13:58.557Z,2.47
2018-08-20T20:16:39.183Z,1.60
2018-08-20T20:19:09.770Z,1.40
2018-08-20T20:21:41.010Z,1.87
2018-08-20T20:24:12.152Z,1.70
2018-08-20T20:26:45.663Z,2.43
2018-08-20T20:29:15.929Z,1.33
2018-08-20T20:31:45.986Z,1.80
2018-08-20T20:34:15.990Z,0.90
2018-08-20T20:36:49.544Z,1.33
2018-08-20T20:39:19.636Z,2.00
2018-08-20T20:41:50.763Z,1.67
2018-08-20T20:44:21.254Z,1.20
2018-08-20T20:46:51.391Z,2.20
2018-08-20T20:49:21.375Z,1.07
2018-08-20T20:51:51.230Z,3.63
2018-08-20T20:54:21.348Z,2.00
2018-08-20T20:56:51.621Z,1.60
2018-08-20T20:59:21.555Z,2.90
2018-08-20T21:01:51.576Z,2.03
2018-08-20T21:04:21.452Z,2.27
2018-08-20T21:06:51.351Z,2.03
2018-08-20T21:09:21.228Z,2.40
2018-08-20T21:11:51.108Z,2.23
2018-08-20T21:14:21.074Z,2.80
2018-08-20T21:16:50.954Z,2.90
2018-08-20T21:19:20.994Z,2.23
2018-08-20T21:21:51.073Z,1.87
2018-08-20T21:24:21.089Z,1.90
2018-08-20T21:26:50.935Z,2.27
2018-08-20T21:29:20.661Z,2.00
2018-08-20T21:31:52.648Z,4.47
2018-08-20T21:34:25.208Z,2.33
2018-08-20T21:36:59.035Z,2.10
2018-08-20T21:39:28.820Z,2.10
2018-08-20T21:41:58.593Z,1.60
2018-08-20T21:44:28.210Z,1.67
2018-08-20T21:46:58.015Z,1.30
2018-08-20T21:49:27.777Z,1.57
2018-08-20T21:51:58.738Z,1.20
2018-08-20T21:54:33.644Z,1.33
2018-08-20T21:57:03.545Z,2.07
2018-08-20T21:59:33.285Z,3.17
2018-08-20T22:02:03.401Z,2.17
2018-08-20T22:04:33.050Z,2.70
2018-08-20T22:07:02.621Z,2.70
2018-08-20T22:09:32.258Z,2.40
2018-08-20T22:12:01.912Z,2.13
2018-08-20T22:14:31.609Z,3.13
2018-08-20T22:17:01.201Z,3.13
2018-08-20T22:19:30.988Z,1.87
2018-08-20T22:22:00.649Z,1.93
2018-08-20T22:24:30.305Z,2.47
2018-08-20T22:27:00.205Z,1.77
2018-08-20T22:29:36.735Z,1.53
2018-08-20T22:32:08.419Z,2.77
2018-08-20T22:34:37.981Z,1.63
2018-08-20T22:37:09.916Z,2.70
2018-08-20T22:39:39.520Z,2.90
2018-08-20T22:42:09.260Z,2.20
2018-08-20T22:44:38.870Z,3.17
2018-08-20T22:47:08.688Z,2.43
2018-08-20T22:49:38.279Z,2.73
2018-08-20T22:52:14.547Z,1.83
2018-08-20T22:54:44.505Z,2.07
2018-08-20T22:57:14.470Z,2.30
2018-08-20T22:59:44.389Z,2.30
2018-08-20T23:02:15.357Z,3.07
2018-08-20T23:04:49.800Z,2.50
2018-08-20T23:07:20.772Z,1.70
2018-08-20T23:09:52.464Z,1.90
2018-08-20T23:12:40.971Z,2.93
2018-08-20T23:15:25.011Z,3.73
2018-08-20T23:17:55.142Z,2.03
2018-08-20T23:20:31.633Z,2.67
2018-08-20T23:23:02.455Z,3.13
2018-08-20T23:25:35.910Z,2.17
2018-08-20T23:28:06.323Z,3.30
2018-08-20T23:30:39.414Z,3.20
2018-08-20T23:33:11.270Z,2.97
2018-08-20T23:35:42.843Z,3.83
2018-08-20T23:38:13.782Z,3.90
2018-08-20T23:40:44.334Z,3.67
2018-08-20T23:43:14.254Z,2.73
2018-08-20T23:45:44.697Z,4.17
2018-08-20T23:48:14.842Z,5.27
2018-08-20T23:50:59.497Z,5.03
2018-08-20T23:53:33.468Z,4.43
2018-08-20T23:56:08.384Z,4.13
2018-08-20T23:58:42.265Z,4.50
